Time;durP1;ratioP1;P1;durP2;ratioP2;P2;SDS_P1;SDS_P2;PMS_P1;PMS_P2;Temp;Humidity;BMP_temperature;BMP_pressure;BME280_temperature;BME280_humidity;BME280_pressure;Samples;Min_cycle;Max_cycle;Signal;HPM_P1;HPM_P2
2023/10/26 00:01:51;;;;;;;;;;;;;;;9.80;100.00;98734.53;5006696;28;19921;-75
2023/10/26 00:04:18;;;;;;;;;;;;;;;9.80;100.00;98737.16;5007846;28;19955;-77
2023/10/26 00:06:46;;;;;;;;;;;;;;;9.79;100.00;98733.69;5012247;28;19925;-76
2023/10/26 00:09:13;;;;;;;;;;;;;;;9.80;100.00;98732.72;5006372;28;19944;-77
2023/10/26 00:11:40;;;;;;;;;;;;;;;9.80;100.00;98732.72;5012604;28;19925;-75
2023/10/26 00:14:08;;;;;;;;;;;;;;;9.81;100.00;98729.13;5003424;28;19930;-74
2023/10/26 00:16:35;;;;;;;;;;;;;;;9.80;100.00;98724.84;5009633;28;19965;-75
2023/10/26 00:19:03;;;;;;;;;;;;;;;9.82;100.00;98730.81;5010630;28;20613;-77
2023/10/26 00:21:32;;;;;;;;;;;;;;;9.82;100.00;98733.44;5006572;28;20479;-76
2023/10/26 00:23:59;;;;;;;;;;;;;;;9.83;100.00;98727.22;5012048;28;19976;-76
2023/10/26 00:26:45;;;;;;;;;;;;;;;9.84;100.00;98721.00;5005835;28;19988;-76
2023/10/26 00:29:13;;;;;;;;;;;;;;;9.80;100.00;98718.75;5011368;28;19929;-75
2023/10/26 00:31:40;;;;;;;;;;;;;;;9.78;100.00;98718.06;5009247;28;19968;-76
2023/10/26 00:34:07;;;;;;;;;;;;;;;9.77;100.00;98717.25;5009489;28;19921;-76
2023/10/26 00:36:34;;;;;;;;;;;;;;;9.76;100.00;98712.94;5011035;28;19921;-76
2023/10/26 00:39:02;;;;;;;;;;;;;;;9.74;100.00;98716.66;5010382;28;19975;-76
2023/10/26 00:41:55;;;;;;;;;;;;;;;9.72;100.00;98708.06;4990513;28;19925;-76
2023/10/26 00:44:22;;;;;;;;;;;;;;;9.71;100.00;98709.03;5012254;28;20474;-75
2023/10/26 00:46:51;;;;;;;;;;;;;;;9.69;100.00;98697.84;5026602;28;20431;-77
2023/10/26 00:49:18;;;;;;;;;;;;;;;9.68;100.00;98706.66;5008074;28;19925;-76
2023/10/26 00:51:50;;;;;;;;;;;;;;;9.67;100.00;98692.72;5010725;28;19925;-75
2023/10/26 00:54:20;;;;;;;;;;;;;;;9.68;100.00;98693.53;5002194;28;19921;-77
2023/10/26 00:56:48;;;;;;;;;;;;;;;9.70;100.00;98694.25;5006138;28;19925;-74
2023/10/26 00:59:17;;;;;;;;;;;;;;;9.68;100.00;98690.91;5005993;28;19961;-76
2023/10/26 01:01:45;;;;;;;;;;;;;;;9.69;100.00;98692.59;4987759;28;20321;-77
2023/10/26 01:04:22;;;;;;;;;;;;;;;9.66;100.00;98685.78;4998186;28;19972;-75
2023/10/26 01:06:49;;;;;;;;;;;;;;;9.67;100.00;98682.19;5024059;28;19961;-78
2023/10/26 01:09:17;;;;;;;;;;;;;;;9.64;100.00;98678.06;5002120;28;19926;-75
2023/10/26 01:11:44;;;;;;;;;;;;;;;9.65;100.00;98676.25;4990317;28;19991;-76
2023/10/26 01:14:11;;;;;;;;;;;;;;;9.65;100.00;98673.63;5009870;28;20273;-75
2023/10/26 01:16:39;;;;;;;;;;;;;;;9.67;100.00;98665.59;5006232;28;20399;-75
2023/10/26 01:19:08;;;;;;;;;;;;;;;9.64;100.00;98669.34;5007784;28;19929;-77
2023/10/26 01:22:02;;;;;;;;;;;;;;;9.63;100.00;98665.84;5022966;28;19921;-76
2023/10/26 01:24:29;;;;;;;;;;;;;;;9.65;100.00;98657.88;5006689;28;19983;-74
2023/10/26 01:26:56;;;;;;;;;;;;;;;9.60;100.00;98660.06;5006561;28;19926;-75
2023/10/26 01:29:23;;;;;;;;;;;;;;;9.60;100.00;98663.50;4974514;28;19921;-75
2023/10/26 01:31:50;;;;;;;;;;;;;;;9.61;100.00;98662.53;5025095;28;19946;-77
2023/10/26 01:37:10;;;;;;;;;;;;;;;9.58;100.00;98649.66;4993880;28;20039;-75
2023/10/26 01:39:38;;;;;;;;;;;;;;;9.58;100.00;98652.28;5010033;28;19988;-76
2023/10/26 01:42:09;;;;;;;;;;;;;;;9.59;100.00;98647.88;5010112;28;19929;-77
2023/10/26 01:44:37;;;;;;;;;;;;;;;9.59;100.00;98646.09;5007855;28;19972;-75
2023/10/26 01:47:05;;;;;;;;;;;;;;;9.57;100.00;98645.38;5006768;28;19972;-74
2023/10/26 01:49:35;;;;;;;;;;;;;;;9.57;100.00;98640.13;4996550;28;19944;-76
2023/10/26 01:52:02;;;;;;;;;;;;;;;9.56;100.00;98640.28;5011459;28;20377;-74
2023/10/26 01:54:29;;;;;;;;;;;;;;;9.56;100.00;98640.28;5020835;28;19921;-77
2023/10/26 01:56:57;;;;;;;;;;;;;;;9.55;100.00;98636.00;5003697;28;19929;-74
2023/10/26 01:59:24;;;;;;;;;;;;;;;9.56;100.00;98637.66;4991246;28;19984;-75
2023/10/26 02:01:51;;;;;;;;;;;;;;;9.54;100.00;98629.88;5022551;28;19928;-74
2023/10/26 02:04:18;;;;;;;;;;;;;;;9.52;100.00;98637.06;5023408;28;19925;-76
2023/10/26 02:06:45;;;;;;;;;;;;;;;9.53;100.00;98638.72;5024683;28;19921;-76
2023/10/26 02:09:12;;;;;;;;;;;;;;;9.55;100.00;98631.56;5025949;28;19944;-76
2023/10/26 02:11:39;;;;;;;;;;;;;;;9.54;100.00;98627.25;4994945;28;19925;-75
2023/10/26 02:14:06;;;;;;;;;;;;;;;9.55;100.00;98626.31;5008892;28;20010;-74
2023/10/26 02:16:33;;;;;;;;;;;;;;;9.54;100.00;98629.88;5005102;28;20380;-76
2023/10/26 02:19:00;;;;;;;;;;;;;;;9.54;100.00;98631.69;5007230;28;19980;-76
2023/10/26 02:21:28;;;;;;;;;;;;;;;9.53;100.00;98622.97;4991190;28;19922;-75
2023/10/26 02:23:55;;;;;;;;;;;;;;;9.54;100.00;98616.75;5023809;28;20344;-75
2023/10/26 02:26:22;;;;;;;;;;;;;;;9.54;100.00;98622.00;5006160;28;19979;-75
2023/10/26 02:28:49;;;;;;;;;;;;;;;9.55;100.00;98618.44;5002889;28;19976;-75
2023/10/26 02:31:16;;;;;;;;;;;;;;;9.55;100.00;98613.19;5004037;28;19969;-76
2023/10/26 02:33:45;;;;;;;;;;;;;;;9.54;100.00;98611.50;5009580;28;19921;-75
2023/10/26 02:36:12;;;;;;;;;;;;;;;9.54;100.00;98614.13;5007049;28;19929;-76
2023/10/26 02:38:39;;;;;;;;;;;;;;;9.52;100.00;98613.44;4989453;28;19965;-75
2023/10/26 02:41:07;;;;;;;;;;;;;;;9.53;100.00;98619.50;5009002;28;19975;-73
2023/10/26 02:43:34;;;;;;;;;;;;;;;9.52;100.00;98610.81;5004428;28;20300;-75
2023/10/26 02:46:04;;;;;;;;;;;;;;;9.52;100.00;98608.19;4990965;28;19960;-76
2023/10/26 02:48:34;;;;;;;;;;;;;;;9.54;100.00;98603.59;5006251;28;19921;-73
2023/10/26 02:51:01;;;;;;;;;;;;;;;9.54;100.00;98606.22;5011474;28;20012;-76
2023/10/26 02:53:32;;;;;;;;;;;;;;;9.52;100.00;98602.94;5011828;28;19975;-75
2023/10/26 02:56:00;;;;;;;;;;;;;;;9.53;100.00;98601.94;5009254;28;19921;-76
2023/10/26 02:58:27;;;;;;;;;;;;;;;9.54;100.00;98603.59;5004920;28;19979;-75
2023/10/26 03:00:54;;;;;;;;;;;;;;;9.55;100.00;98601.84;5020990;28;19967;-76
2023/10/26 03:03:22;;;;;;;;;;;;;;;9.55;100.00;98601.84;5008805;28;19922;-74
2023/10/26 03:05:49;;;;;;;;;;;;;;;9.54;100.00;98597.53;4990587;28;19984;-75
2023/10/26 03:08:17;;;;;;;;;;;;;;;9.54;100.00;98598.34;5008984;28;19929;-74
2023/10/26 03:10:44;;;;;;;;;;;;;;;9.51;100.00;98598.63;5026769;28;19922;-76
2023/10/26 03:13:11;;;;;;;;;;;;;;;9.53;100.00;98601.13;5008459;28;20131;-74
2023/10/26 03:15:39;;;;;;;;;;;;;;;9.54;100.00;98593.09;4988739;28;19922;-74
2023/10/26 03:18:06;;;;;;;;;;;;;;;9.53;100.00;98593.25;5009252;28;20388;-75
2023/10/26 03:20:34;;;;;;;;;;;;;;;9.51;100.00;98588.13;4994960;28;19929;-73
2023/10/26 03:23:01;;;;;;;;;;;;;;;9.53;100.00;98591.44;5010013;28;19975;-75
2023/10/26 03:25:28;;;;;;;;;;;;;;;9.51;100.00;98595.19;5009469;28;19940;-74
2023/10/26 03:27:59;;;;;;;;;;;;;;;9.52;100.00;98591.59;5021736;28;19921;-76
2023/10/26 03:30:26;;;;;;;;;;;;;;;9.53;100.00;98585.38;5009358;28;19922;-76
2023/10/26 03:32:53;;;;;;;;;;;;;;;9.47;100.00;98589.38;5010475;28;19968;-76
2023/10/26 03:35:23;;;;;;;;;;;;;;;9.47;100.00;98591.16;5008144;28;19922;-74
2023/10/26 03:37:51;;;;;;;;;;;;;;;9.48;100.00;98593.66;5009495;28;19980;-75
2023/10/26 03:40:18;;;;;;;;;;;;;;;9.49;100.00;98592.66;5011150;28;19921;-73
2023/10/26 03:42:45;;;;;;;;;;;;;;;9.48;100.00;98596.28;5004497;28;19984;-74
2023/10/26 03:45:13;;;;;;;;;;;;;;;9.49;100.00;98591.84;5022746;28;19927;-74
2023/10/26 03:47:40;;;;;;;;;;;;;;;9.49;100.00;98590.03;5025019;28;19925;-76
2023/10/26 03:50:07;;;;;;;;;;;;;;;9.49;100.00;98592.66;5009950;28;19925;-74
2023/10/26 03:52:35;;;;;;;;;;;;;;;9.51;100.00;98597.81;5009732;28;19990;-75
2023/10/26 03:55:04;;;;;;;;;;;;;;;9.54;100.00;98590.47;5010112;28;19984;-75
2023/10/26 03:57:33;;;;;;;;;;;;;;;9.52;100.00;98589.78;5020626;28;19921;-74
2023/10/26 04:00:01;;;;;;;;;;;;;;;9.53;100.00;98593.25;5007624;28;19975;-75
2023/10/26 04:02:30;;;;;;;;;;;;;;;9.54;100.00;98587.84;5023692;28;19987;-75
2023/10/26 04:04:57;;;;;;;;;;;;;;;9.52;100.00;98581.91;5011576;28;19933;-76
2023/10/26 04:07:24;;;;;;;;;;;;;;;9.53;100.00;98580.09;5010219;28;19972;-77
2023/10/26 04:09:51;;;;;;;;;;;;;;;9.53;100.00;98573.06;5009539;28;20008;-76
2023/10/26 04:12:19;;;;;;;;;;;;;;;9.53;100.00;98578.31;5009489;28;19932;-75
2023/10/26 04:14:46;;;;;;;;;;;;;;;9.52;100.00;98568.78;5010310;28;20442;-75
2023/10/26 04:17:15;;;;;;;;;;;;;;;9.52;100.00;98573.19;4992488;28;19925;-74
2023/10/26 04:19:42;;;;;;;;;;;;;;;9.50;100.00;98572.50;5010576;28;20304;-74
2023/10/26 04:22:09;;;;;;;;;;;;;;;9.49;100.00;98570.84;5014901;28;19929;-74
2023/10/26 04:24:37;;;;;;;;;;;;;;;9.50;100.00;98568.09;5010554;28;20288;-74
2023/10/26 04:27:04;;;;;;;;;;;;;;;9.50;100.00;98568.09;5009551;28;20446;-74
2023/10/26 04:29:31;;;;;;;;;;;;;;;9.51;100.00;98567.13;5009210;28;20008;-74
2023/10/26 04:31:59;;;;;;;;;;;;;;;9.51;100.00;98563.66;5014579;28;20488;-74
2023/10/26 04:34:26;;;;;;;;;;;;;;;9.52;100.00;98566.16;5025682;28;20059;-74
2023/10/26 04:36:55;;;;;;;;;;;;;;;9.53;100.00;98566.97;5010325;28;19923;-75
2023/10/26 04:39:22;;;;;;;;;;;;;;;9.53;100.00;98564.34;5012860;28;19922;-75
2023/10/26 04:41:51;;;;;;;;;;;;;;;9.53;100.00;98566.97;5007554;28;19980;-75
2023/10/26 04:44:19;;;;;;;;;;;;;;;9.55;100.00;98565.88;4991538;28;19925;-74
2023/10/26 04:46:46;;;;;;;;;;;;;;;9.56;100.00;98566.72;4976691;28;19965;-74
2023/10/26 04:49:15;;;;;;;;;;;;;;;9.58;100.00;98565.59;5009198;28;20335;-74
2023/10/26 04:51:43;;;;;;;;;;;;;;;9.61;100.00;98561.88;5007983;28;19972;-76
2023/10/26 04:54:09;;;;;;;;;;;;;;;9.60;100.00;98563.69;5006117;28;19965;-75
2023/10/26 04:56:37;;;;;;;;;;;;;;;9.61;100.00;98561.88;5006405;28;19976;-76
2023/10/26 04:59:04;;;;;;;;;;;;;;;9.62;100.00;98567.00;5007480;28;19990;-75
2023/10/26 05:01:31;;;;;;;;;;;;;;;9.62;100.00;98561.75;4991258;28;19921;-74
2023/10/26 05:03:58;;;;;;;;;;;;;;;9.63;100.00;98562.56;5022889;28;19933;-75
2023/10/26 05:06:26;;;;;;;;;;;;;;;9.65;100.00;98563.28;4990290;28;19979;-76
2023/10/26 05:08:53;;;;;;;;;;;;;;;9.68;100.00;98560.41;5020154;28;19921;-75
2023/10/26 05:11:20;;;;;;;;;;;;;;;9.69;100.00;98555.97;5008251;28;19921;-75
2023/10/26 05:13:48;;;;;;;;;;;;;;;9.68;100.00;98554.28;5007211;28;20064;-75
2023/10/26 05:16:16;;;;;;;;;;;;;;;9.68;100.00;98555.16;4990685;28;20305;-76
2023/10/26 05:18:43;;;;;;;;;;;;;;;9.66;100.00;98550.97;5006734;28;19921;-74
2023/10/26 05:21:10;;;;;;;;;;;;;;;9.68;100.00;98557.78;5008836;28;19921;-74
2023/10/26 05:23:40;;;;;;;;;;;;;;;9.67;100.00;98545.56;5004860;28;19948;-75
2023/10/26 05:26:07;;;;;;;;;;;;;;;9.64;100.00;98551.94;5009280;28;19921;-74
2023/10/26 05:28:35;;;;;;;;;;;;;;;9.66;100.00;98549.19;5008056;28;19922;-75
2023/10/26 05:31:02;;;;;;;;;;;;;;;9.68;100.00;98552.50;5002920;28;20059;-74
2023/10/26 05:33:29;;;;;;;;;;;;;;;9.66;100.00;98551.81;5008860;28;20044;-74
2023/10/26 05:35:59;;;;;;;;;;;;;;;9.66;100.00;98554.44;5009555;28;20308;-74
2023/10/26 05:38:26;;;;;;;;;;;;;;;9.67;100.00;98550.81;5008759;28;19933;-74
2023/10/26 05:40:55;;;;;;;;;;;;;;;9.66;100.00;98554.44;5022648;28;19928;-77
2023/10/26 05:43:23;;;;;;;;;;;;;;;9.64;100.00;98551.13;5008102;28;19921;-74
2023/10/26 05:45:50;;;;;;;;;;;;;;;9.64;100.00;98549.31;5008692;28;19972;-74
2023/10/26 05:48:19;;;;;;;;;;;;;;;9.65;100.00;98560.66;5006061;28;19921;-74
2023/10/26 05:50:46;;;;;;;;;;;;;;;9.62;100.00;98547.78;5008162;28;20560;-74
2023/10/26 05:53:13;;;;;;;;;;;;;;;9.59;100.00;98546.28;5025210;28;19987;-74
2023/10/26 05:55:40;;;;;;;;;;;;;;;9.59;100.00;98550.66;5024061;28;20331;-74
2023/10/26 05:58:10;;;;;;;;;;;;;;;9.58;100.00;98555.09;5023643;28;19996;-75
2023/10/26 06:01:03;;;;;;;;;;;;;;;9.59;100.00;98553.28;5006633;28;19956;-75
2023/10/26 06:03:30;;;;;;;;;;;;;;;9.59;100.00;98558.56;5007004;28;19921;-74
2023/10/26 06:05:58;;;;;;;;;;;;;;;9.57;100.00;98563.13;4991662;28;20070;-75
2023/10/26 06:08:25;;;;;;;;;;;;;;;9.57;100.00;98560.50;4991732;28;19921;-75
2023/10/26 06:10:53;;;;;;;;;;;;;;;9.57;100.00;98561.31;5007990;28;19933;-75
2023/10/26 06:13:20;;;;;;;;;;;;;;;9.56;100.00;98567.53;5006702;28;19922;-75
2023/10/26 06:15:47;;;;;;;;;;;;;;;9.59;100.00;98561.19;5005112;28;19937;-75
2023/10/26 06:18:14;;;;;;;;;;;;;;;9.58;100.00;98568.22;5006837;28;19956;-73
2023/10/26 06:20:41;;;;;;;;;;;;;;;9.59;100.00;98572.53;5004124;28;19979;-74
2023/10/26 06:23:08;;;;;;;;;;;;;;;9.58;100.00;98565.59;5006322;28;19921;-75
2023/10/26 06:25:35;;;;;;;;;;;;;;;9.60;100.00;98574.19;5009777;28;20348;-73
2023/10/26 06:28:03;;;;;;;;;;;;;;;9.61;100.00;98575.84;5023395;28;19944;-73
2023/10/26 06:30:31;;;;;;;;;;;;;;;9.62;100.00;98569.63;4993496;28;20749;-74
2023/10/26 06:33:00;;;;;;;;;;;;;;;9.62;100.00;98568.78;5007278;28;20001;-74
2023/10/26 06:35:28;;;;;;;;;;;;;;;9.64;100.00;98574.75;5012379;28;19921;-74
2023/10/26 06:37:55;;;;;;;;;;;;;;;9.64;100.00;98572.97;5010208;28;19991;-73
2023/10/26 06:40:22;;;;;;;;;;;;;;;9.66;100.00;98577.25;5009824;28;20341;-73
2023/10/26 06:42:49;;;;;;;;;;;;;;;9.69;100.00;98575.19;5010119;28;19925;-73
2023/10/26 06:45:19;;;;;;;;;;;;;;;9.69;100.00;98583.06;5009348;28;20612;-73
2023/10/26 06:47:50;;;;;;;;;;;;;;;9.69;100.00;98577.00;5008195;28;20032;-74
2023/10/26 06:50:17;;;;;;;;;;;;;;;9.72;100.00;98580.16;5009712;28;19972;-73
2023/10/26 06:52:44;;;;;;;;;;;;;;;9.72;100.00;98579.31;4993514;28;19925;-73
2023/10/26 06:55:14;;;;;;;;;;;;;;;9.72;100.00;98585.41;5010626;28;19952;-74
2023/10/26 06:57:56;;;;;;;;;;;;;;;9.72;100.00;98584.59;4992401;28;19976;-73
2023/10/26 07:00:23;;;;;;;;;;;;;;;9.74;100.00;98588.75;5010166;28;19983;-73
2023/10/26 07:02:50;;;;;;;;;;;;;;;9.76;100.00;98586.81;5006651;28;19921;-73
2023/10/26 07:05:18;;;;;;;;;;;;;;;9.75;100.00;98590.41;5008461;28;19997;-73
2023/10/26 07:07:45;;;;;;;;;;;;;;;9.72;100.00;98587.22;5010423;28;19925;-73
2023/10/26 07:10:15;;;;;;;;;;;;;;;9.72;100.00;98595.91;5010488;28;19983;-73
2023/10/26 07:12:42;;;;;;;;;;;;;;;9.71;100.00;98596.88;5010784;28;20463;-75
2023/10/26 07:15:09;;;;;;;;;;;;;;;9.71;100.00;98599.53;5021885;28;19926;-73
2023/10/26 07:17:37;;;;;;;;;;;;;;;9.73;100.00;98600.22;5008302;28;19997;-73
2023/10/26 07:20:05;;;;;;;;;;;;;;;9.76;100.00;98601.75;5009855;28;20098;-73
2023/10/26 07:22:32;;;;;;;;;;;;;;;9.80;100.00;98592.63;5012290;28;19960;-73
2023/10/26 07:25:01;;;;;;;;;;;;;;;9.80;100.00;98593.44;5011120;28;19925;-73
2023/10/26 07:27:28;;;;;;;;;;;;;;;9.84;100.00;98604.53;5010268;28;19975;-73
2023/10/26 07:29:56;;;;;;;;;;;;;;;9.83;100.00;98602.88;5004781;28;20423;-73
2023/10/26 07:32:23;;;;;;;;;;;;;;;9.82;100.00;98611.72;5008194;28;19921;-73
2023/10/26 07:34:51;;;;;;;;;;;;;;;9.84;100.00;98617.66;5008121;28;21057;-73
2023/10/26 07:37:18;;;;;;;;;;;;;;;9.87;100.00;98620.03;5003629;28;19929;-73
2023/10/26 07:39:45;;;;;;;;;;;;;;;9.92;100.00;98619.63;5005829;28;19976;-73
2023/10/26 07:42:15;;;;;;;;;;;;;;;9.95;100.00;98625.47;5009408;28;19921;-73
2023/10/26 07:44:43;;;;;;;;;;;;;;;9.90;100.00;98625.84;5009687;28;20339;-73
2023/10/26 07:47:12;;;;;;;;;;;;;;;9.93;100.00;98623.91;5009535;28;20048;-73
2023/10/26 07:49:39;;;;;;;;;;;;;;;9.93;100.00;98626.53;5003785;28;19921;-74
2023/10/26 07:52:06;;;;;;;;;;;;;;;9.96;100.00;98629.75;5010263;28;19921;-73
2023/10/26 07:54:35;;;;;;;;;;;;;;;9.98;100.00;98626.97;5010528;28;19952;-73
2023/10/26 07:57:02;;;;;;;;;;;;;;;9.97;100.00;98622.69;5005501;28;19957;-73
2023/10/26 07:59:29;;;;;;;;;;;;;;;9.98;100.00;98632.22;4993960;28;19921;-73
2023/10/26 08:01:57;;;;;;;;;;;;;;;9.98;100.00;98627.78;4992431;28;19979;-73
2023/10/26 08:04:24;;;;;;;;;;;;;;;9.99;100.00;98626.81;5008486;28;19921;-74
2023/10/26 08:06:51;;;;;;;;;;;;;;;10.00;100.00;98627.69;5005321;28;20383;-73
2023/10/26 08:09:18;;;;;;;;;;;;;;;10.03;100.00;98625.59;5023739;28;19992;-73
2023/10/26 08:11:45;;;;;;;;;;;;;;;10.09;100.00;98632.13;5010461;28;19947;-73
2023/10/26 08:14:12;;;;;;;;;;;;;;;10.10;100.00;98631.16;5024647;28;19921;-73
2023/10/26 08:16:59;;;;;;;;;;;;;;;10.09;100.00;98632.94;5007112;28;20486;-73
2023/10/26 08:19:26;;;;;;;;;;;;;;;10.12;100.00;98639.72;5009701;28;19933;-73
2023/10/26 08:21:54;;;;;;;;;;;;;;;10.09;100.00;98637.38;5008251;28;19929;-73
2023/10/26 08:24:21;;;;;;;;;;;;;;;10.11;100.00;98632.81;5009125;28;19925;-74
2023/10/26 08:26:48;;;;;;;;;;;;;;;10.17;100.00;98642.75;5009348;28;20316;-73
2023/10/26 08:29:16;;;;;;;;;;;;;;;10.14;100.00;98643.88;5024946;28;19979;-74
2023/10/26 08:31:54;;;;;;;;;;;;;;;10.13;100.00;98646.63;5007354;28;19930;-74
2023/10/26 08:34:21;;;;;;;;;;;;;;;10.16;100.00;98649.00;5007737;28;20063;-74
2023/10/26 08:36:48;;;;;;;;;;;;;;;10.20;100.00;98658.28;5005890;28;20028;-74
2023/10/26 08:39:36;;;;;;;;;;;;;;;10.21;100.00;98664.38;4994570;28;19921;-74
2023/10/26 08:42:04;;;;;;;;;;;;;;;10.23;100.00;98668.53;4991549;28;19933;-73
2023/10/26 08:44:31;;;;;;;;;;;;;;;10.28;100.00;98660.28;5005962;28;20012;-74
2023/10/26 08:47:00;;;;;;;;;;;;;;;10.29;100.00;98672.44;5005922;28;19930;-74
2023/10/26 08:49:27;;;;;;;;;;;;;;;10.31;100.00;98675.75;5015055;28;19930;-73
2023/10/26 08:51:54;;;;;;;;;;;;;;;10.31;100.00;98668.72;4997032;28;19932;-74
2023/10/26 08:54:22;;;;;;;;;;;;;;;10.36;100.00;98665.69;5011012;28;19996;-73
2023/10/26 08:56:48;;;;;;;;;;;;;;;10.39;100.00;98673.28;5010703;28;19921;-73
2023/10/26 08:59:16;;;;;;;;;;;;;;;10.43;100.00;98674.66;5002459;28;20297;-73
2023/10/26 09:01:48;;;;;;;;;;;;;;;10.46;100.00;98684.94;5012417;28;19929;-73
2023/10/26 09:04:15;;;;;;;;;;;;;;;10.50;100.00;98683.69;5005684;28;19975;-73
2023/10/26 09:06:46;;;;;;;;;;;;;;;10.51;100.00;98687.16;5004679;28;19925;-73
2023/10/26 09:09:14;;;;;;;;;;;;;;;10.53;100.00;98679.94;5003859;28;20340;-73
2023/10/26 09:11:42;;;;;;;;;;;;;;;10.55;100.00;98685.91;5002152;28;20004;-73
2023/10/26 09:14:13;;;;;;;;;;;;;;;10.53;100.00;98690.47;5021697;28;19956;-73
2023/10/26 09:16:41;;;;;;;;;;;;;;;10.51;100.00;98698.50;5005581;28;20400;-73
2023/10/26 09:19:08;;;;;;;;;;;;;;;10.54;100.00;98690.34;5004803;28;19921;-74
2023/10/26 09:21:49;;;;;;;;;;;;;;;10.63;100.00;98694.78;5004123;28;19930;-74
2023/10/26 09:24:26;;;;;;;;;;;;;;;10.70;100.00;98696.84;5006371;28;19940;-73
2023/10/26 09:26:54;;;;;;;;;;;;;;;10.82;100.00;98701.00;5013968;28;19999;-73
2023/10/26 09:29:21;;;;;;;;;;;;;;;10.83;100.00;98694.78;5005304;28;19925;-74
2023/10/26 09:31:53;;;;;;;;;;;;;;;10.89;100.00;98699.47;5000502;28;19973;-73
2023/10/26 09:34:24;;;;;;;;;;;;;;;10.93;100.00;98700.84;5012255;28;19944;-74
2023/10/26 09:37:01;;;;;;;;;;;;;;;10.92;100.00;98701.00;5004869;28;20368;-74
2023/10/26 09:39:29;;;;;;;;;;;;;;;10.95;100.00;98698.94;5006489;28;19948;-74
2023/10/26 09:42:03;;;;;;;;;;;;;;;10.95;100.00;98714.72;4990142;28;19921;-74
2023/10/26 09:44:30;;;;;;;;;;;;;;;10.92;100.00;98711.53;5022308;28;19922;-73
2023/10/26 09:46:57;;;;;;;;;;;;;;;10.86;100.00;98713.75;4993605;28;19971;-74
2023/10/26 09:49:25;;;;;;;;;;;;;;;10.88;100.00;98708.34;5007297;28;19979;-73
2023/10/26 09:51:53;;;;;;;;;;;;;;;10.95;100.00;98706.00;5008679;28;19922;-73
2023/10/26 09:54:21;;;;;;;;;;;;;;;10.97;100.00;98706.69;5010371;28;19934;-74
2023/10/26 09:56:50;;;;;;;;;;;;;;;11.00;100.00;98706.41;5002603;28;19922;-73
2023/10/26 09:59:17;;;;;;;;;;;;;;;11.04;100.00;98719.16;5010426;28;19929;-74
2023/10/26 10:01:45;;;;;;;;;;;;;;;11.04;100.00;98715.69;4998456;28;19957;-73
2023/10/26 10:04:13;;;;;;;;;;;;;;;11.04;100.00;98716.53;5009286;28;19929;-73
2023/10/26 10:06:43;;;;;;;;;;;;;;;11.08;100.00;98709.19;5023260;28;20033;-74
2023/10/26 10:09:10;;;;;;;;;;;;;;;11.14;100.00;98713.88;5022684;28;19932;-74
2023/10/26 10:11:38;;;;;;;;;;;;;;;11.16;100.00;98707.47;5017651;28;19921;-74
2023/10/26 10:14:06;;;;;;;;;;;;;;;11.14;100.00;98712.06;5008839;28;20396;-73
2023/10/26 10:16:36;;;;;;;;;;;;;;;11.11;100.00;98714.97;5020455;28;19977;-73
2023/10/26 10:19:16;;;;;;;;;;;;;;;11.13;100.00;98715.69;5010322;28;19937;-74
2023/10/26 10:21:43;;;;;;;;;;;;;;;11.13;100.00;98718.31;5011547;28;19925;-74
2023/10/26 10:24:10;;;;;;;;;;;;;;;11.19;100.00;98714.28;5012769;28;19922;-73
2023/10/26 10:27:06;;;;;;;;;;;;;;;11.22;100.00;98716.63;4995344;28;20284;-73
2023/10/26 10:29:33;;;;;;;;;;;;;;;11.27;100.00;98716.22;5007443;28;19991;-73
2023/10/26 10:32:00;;;;;;;;;;;;;;;11.39;100.00;98713.28;5024294;28;19937;-73
2023/10/26 10:34:29;;;;;;;;;;;;;;;11.47;100.00;98712.53;5010955;28;20356;-74
2023/10/26 10:37:09;;;;;;;;;;;;;;;11.46;100.00;98713.53;5008179;28;20410;-74
2023/10/26 10:39:36;;;;;;;;;;;;;;;11.49;100.00;98718.53;5021827;28;19933;-74
2023/10/26 10:42:07;;;;;;;;;;;;;;;11.47;100.00;98709.91;5011785;28;19936;-73
2023/10/26 10:44:35;;;;;;;;;;;;;;;11.44;100.00;98722.53;5026870;28;19925;-73
2023/10/26 10:47:02;;;;;;;;;;;;;;;11.40;100.00;98707.03;5009758;28;19964;-73
2023/10/26 10:49:29;;;;;;;;;;;;;;;11.40;100.00;98714.13;5009477;28;19991;-73
2023/10/26 10:51:57;;;;;;;;;;;;;;;11.35;100.00;98709.28;5010488;28;20020;-73
2023/10/26 10:54:24;;;;;;;;;;;;;;;11.31;100.00;98705.25;5020295;28;19925;-73
2023/10/26 10:57:11;;;;;;;;;;;;;;;11.39;100.00;98708.00;5005864;28;19975;-73
2023/10/26 10:59:38;;;;;;;;;;;;;;;11.43;100.00;98713.81;4977082;28;20328;-73
2023/10/26 11:02:09;;;;;;;;;;;;;;;11.45;100.00;98706.59;5011611;28;19983;-73
2023/10/26 11:04:55;;;;;;;;;;;;;;;11.45;100.00;98705.78;5024822;28;19976;-73
2023/10/26 11:07:38;;;;;;;;;;;;;;;11.43;100.00;98711.16;5008250;28;19921;-72
2023/10/26 11:10:06;;;;;;;;;;;;;;;11.48;100.00;98716.00;4987792;28;19968;-72
2023/10/26 11:12:33;;;;;;;;;;;;;;;11.51;100.00;98718.38;5009968;28;19933;-73
2023/10/26 11:15:00;;;;;;;;;;;;;;;11.53;100.00;98716.44;5009808;28;20038;-73
2023/10/26 11:17:29;;;;;;;;;;;;;;;11.55;100.00;98717.13;5010615;28;19921;-73
2023/10/26 11:19:56;;;;;;;;;;;;;;;11.53;100.00;98714.63;5005118;28;19968;-73
2023/10/26 11:22:23;;;;;;;;;;;;;;;11.51;100.00;98719.19;5008181;28;19960;-73
2023/10/26 11:24:50;;;;;;;;;;;;;;;11.52;100.00;98717.38;5006899;28;19926;-73
2023/10/26 11:27:18;;;;;;;;;;;;;;;11.54;100.00;98718.09;5006245;28;19921;-73
2023/10/26 11:29:46;;;;;;;;;;;;;;;11.54;100.00;98720.72;5018500;28;19941;-73
2023/10/26 11:32:19;;;;;;;;;;;;;;;11.50;100.00;98722.00;5005855;28;20392;-73
2023/10/26 11:35:05;;;;;;;;;;;;;;;11.50;100.00;98728.09;5008226;28;20059;-73
2023/10/26 11:37:36;;;;;;;;;;;;;;;11.51;100.00;98729.75;4998709;28;19995;-74
2023/10/26 11:40:04;;;;;;;;;;;;;;;11.47;100.00;98727.53;5008429;28;19952;-74
2023/10/26 11:42:44;;;;;;;;;;;;;;;11.39;100.00;98737.00;5023151;28;19989;-73
2023/10/26 11:45:15;;;;;;;;;;;;;;;11.31;100.00;98730.78;5023910;28;19967;-74
2023/10/26 11:47:52;;;;;;;;;;;;;;;11.26;100.00;98735.63;5013168;28;20432;-73
2023/10/26 11:50:29;;;;;;;;;;;;;;;11.23;100.00;98738.53;5006927;28;19977;-73
2023/10/26 11:53:01;;;;;;;;;;;;;;;11.25;100.00;98739.22;5007856;28;20439;-74
2023/10/26 11:55:30;;;;;;;;;;;;;;;11.20;100.00;98733.53;5003271;28;19925;-73
2023/10/26 11:58:01;;;;;;;;;;;;;;;11.15;100.00;98737.41;5009597;28;20304;-74
2023/10/26 12:00:29;;;;;;;;;;;;;;;11.16;100.00;98741.72;5011768;28;20439;-73
2023/10/26 12:02:57;;;;;;;;;;;;;;;11.15;100.00;98745.31;4997845;28;19925;-73
2023/10/26 12:05:24;;;;;;;;;;;;;;;11.17;100.00;98747.84;5008825;28;20352;-73
2023/10/26 12:07:51;;;;;;;;;;;;;;;11.23;100.00;98743.81;5007913;28;20341;-74
2023/10/26 12:10:19;;;;;;;;;;;;;;;11.17;100.00;98742.56;5001173;28;19933;-74
2023/10/26 12:12:48;;;;;;;;;;;;;;;11.24;100.00;98750.72;4997927;28;19926;-73
2023/10/26 12:15:16;;;;;;;;;;;;;;;11.24;100.00;98756.81;5023352;28;20021;-74
2023/10/26 12:17:43;;;;;;;;;;;;;;;11.25;100.00;98761.13;4987288;28;20348;-73
2023/10/26 12:20:11;;;;;;;;;;;;;;;11.27;100.00;98758.38;5007914;28;19922;-73
2023/10/26 12:22:39;;;;;;;;;;;;;;;11.29;100.00;98756.41;5009365;28;19975;-73
2023/10/26 12:25:07;;;;;;;;;;;;;;;11.25;100.00;98761.13;5008419;28;20256;-74
2023/10/26 12:27:35;;;;;;;;;;;;;;;11.20;100.00;98759.88;5004212;28;19972;-74
2023/10/26 12:30:22;;;;;;;;;;;;;;;11.20;100.00;98765.16;4990815;28;19926;-73
2023/10/26 12:32:49;;;;;;;;;;;;;;;11.16;100.00;98769.84;5004401;28;19930;-73
2023/10/26 12:35:17;;;;;;;;;;;;;;;11.10;100.00;98773.88;5006106;28;19922;-74
2023/10/26 12:37:44;;;;;;;;;;;;;;;11.08;100.00;98773.22;5007632;28;20645;-73
2023/10/26 12:40:11;;;;;;;;;;;;;;;11.08;100.00;98775.84;4989007;28;20010;-74
2023/10/26 12:42:39;;;;;;;;;;;;;;;11.11;100.00;98770.28;5024392;28;19925;-74
2023/10/26 12:45:06;;;;;;;;;;;;;;;11.12;100.00;98773.72;5008737;28;19968;-74
2023/10/26 12:47:33;;;;;;;;;;;;;;;11.08;100.00;98767.94;5023343;28;19987;-73
2023/10/26 12:50:00;;;;;;;;;;;;;;;11.09;100.00;98766.97;4990311;28;19921;-73
2023/10/26 12:52:27;;;;;;;;;;;;;;;11.07;100.00;98773.31;5004268;28;20006;-73
2023/10/26 12:54:54;;;;;;;;;;;;;;;11.07;100.00;98773.31;5009108;28;20032;-73